createdAt,value
2023-06-21T00:00:48.220Z,19.65
2023-06-21T00:03:15.197Z,19.65
2023-06-21T00:05:41.743Z,19.66
2023-06-21T00:08:08.202Z,19.65
2023-06-21T00:10:35.830Z,19.67
2023-06-21T00:13:02.285Z,19.65
2023-06-21T00:15:29.250Z,19.64
2023-06-21T00:17:55.794Z,19.67
2023-06-21T00:20:22.908Z,19.65
2023-06-21T00:22:56.694Z,19.63
2023-06-21T00:25:25.201Z,19.62
2023-06-21T00:27:52.089Z,19.60
2023-06-21T00:30:18.619Z,19.59
2023-06-21T00:32:45.075Z,19.56
2023-06-21T00:35:12.345Z,19.55
2023-06-21T00:37:39.359Z,19.51
2023-06-21T00:40:13.575Z,19.50
2023-06-21T00:42:40.932Z,19.50
2023-06-21T00:45:09.662Z,19.49
2023-06-21T00:47:36.082Z,19.50
2023-06-21T00:50:02.724Z,19.48
2023-06-21T00:52:29.789Z,19.44
2023-06-21T00:54:57.153Z,19.43
2023-06-21T00:57:23.834Z,19.41
2023-06-21T00:59:50.316Z,19.37
2023-06-21T01:02:16.739Z,19.31
2023-06-21T01:04:43.566Z,19.30
2023-06-21T01:07:30.140Z,19.26
2023-06-21T01:10:15.651Z,19.26
2023-06-21T01:13:05.608Z,19.24
2023-06-21T01:15:42.638Z,19.22
2023-06-21T01:18:13.677Z,19.21
2023-06-21T01:20:41.681Z,19.17
2023-06-21T01:23:32.684Z,19.18
2023-06-21T01:26:05.285Z,19.15
2023-06-21T01:29:04.778Z,19.09
2023-06-21T01:31:32.048Z,19.02
2023-06-21T01:34:00.857Z,18.99
2023-06-21T01:36:27.473Z,18.98
2023-06-21T01:38:58.082Z,18.99
2023-06-21T01:41:30.023Z,18.97
2023-06-21T01:43:58.471Z,18.92
2023-06-21T01:46:27.387Z,18.95
2023-06-21T01:48:54.370Z,18.96
2023-06-21T01:51:22.163Z,18.96
2023-06-21T01:53:49.784Z,18.97
2023-06-21T01:56:19.217Z,18.95
2023-06-21T01:58:47.744Z,18.97
2023-06-21T02:01:15.027Z,18.99
2023-06-21T02:03:44.968Z,18.98
2023-06-21T02:06:12.575Z,18.98
2023-06-21T02:08:40.046Z,18.99
2023-06-21T02:11:06.627Z,19.02
2023-06-21T02:13:33.216Z,19.04
2023-06-21T02:15:59.653Z,19.03
2023-06-21T02:18:26.149Z,19.07
2023-06-21T02:20:53.357Z,19.06
2023-06-21T02:23:19.901Z,19.06
2023-06-21T02:25:46.571Z,19.06
2023-06-21T02:28:13.128Z,19.06
2023-06-21T02:30:39.485Z,19.06
2023-06-21T02:33:05.941Z,19.07
2023-06-21T02:35:32.466Z,19.09
2023-06-21T02:38:02.595Z,19.09
2023-06-21T02:40:30.426Z,19.09
2023-06-21T02:42:57.021Z,19.09
2023-06-21T02:45:24.425Z,19.06
2023-06-21T02:47:50.950Z,19.06
2023-06-21T02:50:18.477Z,19.08
2023-06-21T02:52:45.111Z,19.09
2023-06-21T02:55:11.858Z,19.03
2023-06-21T02:57:38.306Z,19.01
2023-06-21T03:00:20.610Z,19.00
2023-06-21T03:02:47.205Z,19.01
2023-06-21T03:05:14.075Z,19.01
2023-06-21T03:07:44.994Z,19.01
2023-06-21T03:10:13.044Z,19.05
2023-06-21T03:12:44.171Z,19.06
2023-06-21T03:15:12.239Z,19.06
2023-06-21T03:17:39.880Z,19.06
2023-06-21T03:20:15.015Z,19.06
2023-06-21T03:22:44.551Z,19.03
2023-06-21T03:25:14.223Z,19.03
2023-06-21T03:27:40.994Z,19.01
2023-06-21T03:30:12.337Z,19.03
2023-06-21T03:32:40.523Z,19.03
2023-06-21T03:35:07.210Z,19.03
2023-06-21T03:37:33.655Z,19.03
2023-06-21T03:40:00.413Z,19.05
2023-06-21T03:42:26.863Z,19.03
2023-06-21T03:44:53.308Z,19.03
2023-06-21T03:47:19.717Z,19.01
2023-06-21T03:49:46.077Z,19.02
2023-06-21T03:52:12.481Z,19.02
2023-06-21T03:54:39.029Z,19.04
2023-06-21T03:57:05.838Z,19.02
2023-06-21T03:59:32.372Z,19.01
2023-06-21T04:01:58.768Z,18.99
2023-06-21T04:04:25.285Z,18.99
2023-06-21T04:06:52.923Z,19.00
2023-06-21T04:09:19.313Z,19.04
2023-06-21T04:11:47.403Z,19.03
2023-06-21T04:14:15.705Z,19.03
2023-06-21T04:16:43.506Z,19.00
2023-06-21T04:19:09.971Z,18.99
2023-06-21T04:21:36.423Z,19.00
2023-06-21T04:24:03.063Z,19.02
2023-06-21T04:26:29.891Z,19.06
2023-06-21T04:28:56.302Z,19.11
2023-06-21T04:31:22.946Z,19.17
2023-06-21T04:33:49.876Z,19.24
2023-06-21T04:36:19.373Z,19.34
2023-06-21T04:38:52.648Z,19.43
2023-06-21T04:41:19.772Z,19.51
2023-06-21T04:43:46.357Z,19.58
2023-06-21T04:46:12.755Z,19.63
2023-06-21T04:48:39.286Z,19.66
2023-06-21T04:51:06.410Z,19.69
2023-06-21T04:53:33.470Z,19.68
2023-06-21T04:56:00.041Z,19.70
2023-06-21T04:58:27.574Z,19.77
2023-06-21T05:00:54.329Z,19.74
2023-06-21T05:03:21.071Z,19.75
2023-06-21T05:05:47.668Z,19.76
2023-06-21T05:08:14.431Z,19.82
2023-06-21T05:10:41.084Z,19.87
2023-06-21T05:13:07.488Z,19.93
2023-06-21T05:15:33.946Z,19.99
2023-06-21T05:18:00.465Z,20.00
2023-06-21T05:20:27.231Z,20.06
2023-06-21T05:22:53.979Z,20.06
2023-06-21T05:25:20.609Z,20.03
2023-06-21T05:27:47.024Z,20.08
2023-06-21T05:30:13.541Z,20.16
2023-06-21T05:32:39.995Z,20.26
2023-06-21T05:35:06.807Z,20.30
2023-06-21T05:37:34.919Z,20.35
2023-06-21T05:40:03.778Z,20.33
2023-06-21T05:42:30.713Z,20.34
2023-06-21T05:44:57.163Z,20.43
2023-06-21T05:47:23.562Z,20.49
2023-06-21T05:49:51.525Z,20.56
2023-06-21T05:52:20.420Z,20.69
2023-06-21T05:54:46.935Z,20.80
2023-06-21T05:57:13.376Z,21.73
2023-06-21T05:59:39.930Z,22.76
2023-06-21T06:02:07.172Z,22.44
2023-06-21T06:04:33.769Z,22.94
2023-06-21T06:07:00.173Z,23.17
2023-06-21T06:09:26.651Z,23.18
2023-06-21T06:11:53.781Z,23.23
2023-06-21T06:14:20.227Z,23.02
2023-06-21T06:16:47.142Z,22.83
2023-06-21T06:19:13.603Z,22.53
2023-06-21T06:21:39.960Z,22.25
2023-06-21T06:24:06.469Z,22.12
2023-06-21T06:26:32.847Z,22.04
2023-06-21T06:28:59.250Z,22.05
2023-06-21T06:31:28.136Z,22.79
2023-06-21T06:33:54.629Z,23.29
2023-06-21T06:36:21.512Z,23.65
2023-06-21T06:38:51.962Z,24.06
2023-06-21T06:41:18.783Z,24.09
2023-06-21T06:43:46.052Z,24.26
2023-06-21T06:46:12.506Z,24.77
2023-06-21T06:48:38.880Z,24.53
2023-06-21T06:51:05.315Z,24.02
2023-06-21T06:53:31.927Z,23.96
2023-06-21T06:56:00.158Z,24.91
2023-06-21T06:58:28.063Z,25.61
2023-06-21T07:00:54.827Z,25.87
2023-06-21T07:03:21.394Z,25.96
2023-06-21T07:05:48.501Z,26.11
2023-06-21T07:08:15.185Z,26.57
2023-06-21T07:10:41.807Z,26.28
2023-06-21T07:13:08.439Z,26.52
2023-06-21T07:15:35.321Z,27.36
2023-06-21T07:18:02.387Z,27.77
2023-06-21T07:20:29.525Z,27.75
2023-06-21T07:22:57.429Z,28.01
2023-06-21T07:25:24.233Z,27.30
2023-06-21T07:27:50.772Z,27.05
2023-06-21T07:30:18.392Z,27.08
2023-06-21T07:32:44.813Z,27.11
2023-06-21T07:35:14.091Z,27.18
2023-06-21T07:37:40.562Z,27.83
2023-06-21T07:40:08.754Z,27.53
2023-06-21T07:42:35.241Z,27.38
2023-06-21T07:45:01.896Z,27.50
2023-06-21T07:47:29.166Z,27.57
2023-06-21T07:49:56.759Z,27.80
2023-06-21T07:52:24.362Z,27.77
2023-06-21T07:54:50.762Z,27.55
2023-06-21T07:57:17.746Z,27.54
2023-06-21T07:59:44.598Z,27.24
2023-06-21T08:02:11.260Z,27.03
2023-06-21T08:04:38.282Z,26.91
2023-06-21T08:07:05.003Z,26.52
2023-06-21T08:09:31.367Z,26.44
2023-06-21T08:11:59.761Z,26.69
2023-06-21T08:14:26.158Z,26.74
2023-06-21T08:16:52.530Z,26.78
2023-06-21T08:19:18.954Z,26.67
2023-06-21T08:21:46.450Z,26.47
2023-06-21T08:24:13.130Z,26.17
2023-06-21T08:26:39.615Z,26.18
2023-06-21T08:29:06.047Z,26.20
2023-06-21T08:31:33.916Z,26.23
2023-06-21T08:34:00.548Z,26.19
2023-06-21T08:36:27.630Z,26.40
2023-06-21T08:38:54.009Z,26.39
2023-06-21T08:41:20.495Z,26.45
2023-06-21T08:43:46.907Z,26.24
2023-06-21T08:46:14.044Z,26.21
2023-06-21T08:48:42.238Z,26.29
2023-06-21T08:51:08.675Z,26.42
2023-06-21T08:53:48.132Z,26.26
2023-06-21T08:56:21.152Z,26.26
2023-06-21T08:58:54.311Z,26.07
2023-06-21T09:01:24.012Z,25.78
2023-06-21T09:03:58.582Z,25.76
2023-06-21T09:06:27.560Z,25.90
2023-06-21T09:08:54.835Z,25.87
2023-06-21T09:11:24.891Z,25.86
2023-06-21T09:13:52.361Z,25.77
2023-06-21T09:16:20.341Z,25.44
2023-06-21T09:18:47.868Z,25.55
2023-06-21T09:21:15.301Z,25.81
2023-06-21T09:23:42.007Z,25.78
2023-06-21T09:26:09.514Z,25.66
2023-06-21T09:28:36.672Z,25.69
2023-06-21T09:31:03.284Z,25.63
2023-06-21T09:33:30.042Z,25.73
2023-06-21T09:35:57.713Z,25.76
2023-06-21T09:38:26.159Z,25.72
2023-06-21T09:40:53.302Z,25.61
2023-06-21T09:43:24.053Z,25.71
2023-06-21T09:46:04.733Z,25.70
2023-06-21T09:48:35.635Z,25.82
2023-06-21T09:51:03.822Z,25.76
2023-06-21T09:53:30.473Z,25.59
2023-06-21T09:55:57.521Z,25.67
2023-06-21T09:58:24.789Z,25.81
2023-06-21T10:00:51.560Z,25.95
2023-06-21T10:03:23.383Z,25.88
2023-06-21T10:06:02.390Z,26.03
2023-06-21T10:08:34.428Z,26.15
2023-06-21T10:11:02.480Z,26.17
2023-06-21T10:13:31.457Z,26.20
2023-06-21T10:16:00.761Z,26.17
2023-06-21T10:18:27.898Z,26.16
2023-06-21T10:20:58.072Z,26.34
2023-06-21T10:23:30.227Z,26.33
2023-06-21T10:26:00.826Z,26.40
2023-06-21T10:28:29.344Z,26.49
2023-06-21T10:30:59.660Z,26.45
2023-06-21T10:33:31.166Z,26.54
2023-06-21T10:36:00.621Z,26.61
2023-06-21T10:38:47.683Z,26.54
2023-06-21T10:41:15.681Z,26.63
2023-06-21T10:43:43.538Z,26.84
2023-06-21T10:46:11.915Z,26.98
2023-06-21T10:48:39.079Z,26.81
2023-06-21T10:51:05.762Z,27.04
2023-06-21T10:53:36.694Z,27.10
2023-06-21T10:56:08.705Z,27.14
2023-06-21T10:58:35.202Z,27.11
2023-06-21T11:01:01.785Z,27.02
2023-06-21T11:03:28.768Z,27.04
2023-06-21T11:06:25.520Z,27.01
2023-06-21T11:08:52.147Z,27.01
2023-06-21T11:11:33.047Z,26.98
2023-06-21T11:14:05.359Z,27.07
2023-06-21T11:16:34.781Z,27.10
2023-06-21T11:19:07.893Z,26.99
2023-06-21T11:21:48.672Z,26.83
2023-06-21T11:24:20.307Z,27.00
2023-06-21T11:26:58.632Z,26.89
2023-06-21T11:29:43.278Z,26.62
2023-06-21T11:32:14.426Z,26.60
2023-06-21T11:35:09.550Z,26.86
2023-06-21T11:37:48.822Z,26.96
2023-06-21T11:40:17.148Z,26.82
2023-06-21T11:42:49.079Z,27.05
2023-06-21T11:45:25.730Z,27.19
2023-06-21T11:48:13.986Z,27.37
2023-06-21T11:50:45.814Z,27.47
2023-06-21T11:53:29.653Z,27.81
2023-06-21T11:56:01.827Z,27.90
2023-06-21T11:58:29.462Z,27.94
2023-06-21T12:00:56.967Z,27.92
2023-06-21T12:03:28.043Z,28.07
2023-06-21T12:05:58.060Z,27.71
2023-06-21T12:08:30.002Z,27.52
2023-06-21T12:11:00.925Z,27.72
2023-06-21T12:13:28.544Z,27.62
2023-06-21T12:15:57.205Z,27.48
2023-06-21T12:18:25.390Z,27.75
2023-06-21T12:20:57.152Z,27.68
2023-06-21T12:23:23.781Z,27.87
2023-06-21T12:25:52.450Z,27.90
2023-06-21T12:28:20.862Z,28.28
2023-06-21T12:31:01.475Z,28.40
2023-06-21T12:33:40.724Z,28.60
2023-06-21T12:36:21.398Z,28.72
2023-06-21T12:39:08.139Z,28.85
2023-06-21T12:41:35.597Z,28.86
2023-06-21T12:44:04.354Z,28.70
2023-06-21T12:46:38.469Z,28.76
2023-06-21T12:49:05.002Z,28.82
2023-06-21T12:51:35.137Z,28.70
2023-06-21T12:54:12.956Z,28.95
2023-06-21T12:56:41.605Z,29.12
2023-06-21T12:59:09.391Z,29.25
2023-06-21T13:01:37.957Z,29.04
2023-06-21T13:04:12.999Z,29.12
2023-06-21T13:06:40.874Z,28.78
2023-06-21T13:09:08.066Z,28.76
2023-06-21T13:11:34.693Z,28.96
2023-06-21T13:14:02.922Z,28.89
2023-06-21T13:16:29.326Z,29.01
2023-06-21T13:18:56.122Z,29.18
2023-06-21T13:21:22.876Z,29.17
2023-06-21T13:23:50.924Z,29.38
2023-06-21T13:26:18.362Z,29.20
2023-06-21T13:28:45.194Z,29.23
2023-06-21T13:31:14.166Z,29.04
2023-06-21T13:33:41.471Z,28.84
2023-06-21T13:36:09.376Z,28.73
2023-06-21T13:38:36.072Z,28.52
2023-06-21T13:41:05.070Z,28.31
2023-06-21T13:43:32.393Z,28.03
2023-06-21T13:45:59.374Z,27.88
2023-06-21T13:48:25.897Z,27.74
2023-06-21T13:50:53.190Z,27.94
2023-06-21T13:53:20.344Z,28.24
2023-06-21T13:55:46.730Z,27.94
2023-06-21T13:58:13.122Z,27.81
2023-06-21T14:00:39.908Z,27.74
2023-06-21T14:03:06.565Z,28.24
2023-06-21T14:05:33.319Z,28.27
2023-06-21T14:08:00.212Z,27.99
2023-06-21T14:10:27.884Z,27.96
2023-06-21T14:12:54.593Z,28.04
2023-06-21T14:15:20.996Z,28.44
2023-06-21T14:17:47.395Z,28.91
2023-06-21T14:20:15.417Z,28.90
2023-06-21T14:22:41.824Z,28.69
2023-06-21T14:25:09.681Z,28.77
2023-06-21T14:27:36.416Z,28.90
2023-06-21T14:30:05.079Z,28.95
2023-06-21T14:32:32.431Z,29.09
2023-06-21T14:34:59.278Z,29.12
2023-06-21T14:37:26.872Z,29.28
2023-06-21T14:39:55.469Z,29.19
2023-06-21T14:42:23.798Z,29.08
2023-06-21T14:44:51.128Z,29.25
2023-06-21T14:47:17.691Z,29.29
2023-06-21T14:49:46.318Z,29.30
2023-06-21T14:52:13.065Z,29.25
2023-06-21T14:54:39.774Z,28.45
2023-06-21T14:57:06.477Z,28.31
2023-06-21T14:59:32.862Z,28.55
2023-06-21T15:01:59.315Z,28.72
2023-06-21T15:04:25.814Z,28.84
2023-06-21T15:06:52.388Z,28.99
2023-06-21T15:09:18.854Z,28.92
2023-06-21T15:11:45.279Z,28.97
2023-06-21T15:14:11.739Z,28.99
2023-06-21T15:16:43.404Z,28.97
2023-06-21T15:19:12.506Z,29.10
2023-06-21T15:21:40.033Z,29.01
2023-06-21T15:24:07.658Z,29.05
2023-06-21T15:26:34.721Z,29.04
2023-06-21T15:29:02.476Z,29.01
2023-06-21T15:31:28.896Z,29.09
2023-06-21T15:33:55.497Z,28.92
2023-06-21T15:36:22.396Z,28.88
2023-06-21T15:38:48.824Z,28.70
2023-06-21T15:41:15.934Z,28.72
2023-06-21T15:43:42.804Z,28.75
2023-06-21T15:46:09.248Z,28.89
2023-06-21T15:48:35.710Z,28.88
2023-06-21T15:51:02.184Z,28.71
2023-06-21T15:53:28.673Z,28.27
2023-06-21T15:55:55.134Z,28.39
2023-06-21T15:58:21.601Z,28.56
2023-06-21T16:00:48.388Z,28.57
2023-06-21T16:03:15.855Z,28.58
2023-06-21T16:05:42.551Z,28.64
2023-06-21T16:08:08.949Z,28.40
2023-06-21T16:10:35.412Z,28.30
2023-06-21T16:13:04.308Z,28.35
2023-06-21T16:15:32.611Z,28.17
2023-06-21T16:17:59.343Z,28.00
2023-06-21T16:20:27.417Z,28.02
2023-06-21T16:22:53.867Z,28.00
2023-06-21T16:25:21.410Z,28.06
2023-06-21T16:27:47.858Z,28.06
2023-06-21T16:30:14.486Z,28.02
2023-06-21T16:32:42.160Z,27.95
2023-06-21T16:35:08.788Z,27.93
2023-06-21T16:37:35.219Z,27.97
2023-06-21T16:40:01.631Z,27.98
2023-06-21T16:42:30.211Z,27.88
2023-06-21T16:44:57.199Z,27.82
2023-06-21T16:47:24.407Z,27.82
2023-06-21T16:49:50.871Z,27.71
2023-06-21T16:52:17.410Z,27.48
2023-06-21T16:54:43.853Z,27.07
2023-06-21T16:57:17.771Z,26.83
2023-06-21T16:59:45.330Z,26.99
2023-06-21T17:02:11.851Z,27.10
2023-06-21T17:04:38.299Z,27.21
2023-06-21T17:07:05.271Z,27.21
2023-06-21T17:09:31.663Z,27.21
2023-06-21T17:11:58.696Z,27.25
2023-06-21T17:14:25.190Z,27.27
2023-06-21T17:16:51.558Z,27.25
2023-06-21T17:19:18.961Z,27.21
2023-06-21T17:21:45.612Z,27.20
2023-06-21T17:24:12.088Z,27.13
2023-06-21T17:26:38.497Z,27.14
2023-06-21T17:29:04.886Z,27.09
2023-06-21T17:31:31.579Z,27.07
2023-06-21T17:33:58.142Z,26.98
2023-06-21T17:36:24.828Z,26.90
2023-06-21T17:38:51.570Z,26.73
2023-06-21T17:41:17.985Z,26.63
2023-06-21T17:43:44.421Z,26.50
2023-06-21T17:46:10.819Z,26.33
2023-06-21T17:48:39.417Z,26.20
2023-06-21T17:51:06.079Z,26.09
2023-06-21T17:53:32.608Z,26.03
2023-06-21T17:55:58.998Z,25.91
2023-06-21T17:58:25.532Z,25.77
2023-06-21T18:00:53.125Z,25.75
2023-06-21T18:03:19.783Z,25.71
2023-06-21T18:05:46.392Z,25.64
2023-06-21T18:08:12.767Z,25.64
2023-06-21T18:10:39.146Z,25.58
2023-06-21T18:13:06.859Z,25.53
2023-06-21T18:15:34.481Z,25.53
2023-06-21T18:18:01.140Z,25.46
2023-06-21T18:20:27.599Z,25.43
2023-06-21T18:22:55.583Z,25.39
2023-06-21T18:25:22.369Z,25.30
2023-06-21T18:27:49.704Z,25.22
2023-06-21T18:30:16.317Z,25.17
2023-06-21T18:32:42.921Z,25.10
2023-06-21T18:35:09.989Z,25.03
2023-06-21T18:37:38.484Z,24.96
2023-06-21T18:40:05.711Z,24.86
2023-06-21T18:42:32.213Z,24.71
2023-06-21T18:44:58.918Z,24.57
2023-06-21T18:47:25.387Z,24.46
2023-06-21T18:49:52.033Z,24.34
2023-06-21T18:52:18.423Z,24.26
2023-06-21T18:54:44.827Z,24.21
2023-06-21T18:57:11.268Z,24.21
2023-06-21T18:59:37.841Z,24.12
2023-06-21T19:02:05.778Z,24.04
2023-06-21T19:04:36.628Z,23.91
2023-06-21T19:07:04.281Z,23.86
2023-06-21T19:09:30.685Z,23.82
2023-06-21T19:11:57.380Z,23.80
2023-06-21T19:14:23.961Z,23.75
2023-06-21T19:16:51.949Z,23.69
2023-06-21T19:19:18.752Z,23.62
2023-06-21T19:21:45.243Z,23.57
2023-06-21T19:24:11.761Z,23.52
2023-06-21T19:26:39.769Z,23.46
2023-06-21T19:29:08.132Z,23.42
2023-06-21T19:31:35.999Z,23.36
2023-06-21T19:34:02.669Z,23.29
2023-06-21T19:36:29.422Z,23.19
2023-06-21T19:38:56.403Z,23.09
2023-06-21T19:41:23.014Z,23.03
2023-06-21T19:43:49.480Z,22.93
2023-06-21T19:46:15.874Z,22.89
2023-06-21T19:48:42.330Z,22.86
2023-06-21T19:51:08.715Z,22.79
2023-06-21T19:53:36.258Z,22.74
2023-06-21T19:56:02.855Z,22.70
2023-06-21T19:58:29.859Z,22.67
2023-06-21T20:00:56.552Z,22.60
2023-06-21T20:03:23.213Z,22.44
2023-06-21T20:05:51.746Z,22.28
2023-06-21T20:08:18.329Z,22.13
2023-06-21T20:10:46.217Z,21.95
2023-06-21T20:13:12.637Z,21.79
2023-06-21T20:15:40.873Z,21.66
2023-06-21T20:18:08.558Z,21.55
2023-06-21T20:20:36.651Z,21.41
2023-06-21T20:23:03.629Z,21.28
2023-06-21T20:25:31.496Z,21.21
2023-06-21T20:27:57.934Z,21.12
2023-06-21T20:30:24.913Z,21.05
2023-06-21T20:32:51.407Z,20.90
2023-06-21T20:35:17.900Z,20.81
2023-06-21T20:37:44.293Z,20.73
2023-06-21T20:40:15.630Z,20.69
2023-06-21T20:42:42.813Z,20.61
2023-06-21T20:45:22.114Z,20.51
2023-06-21T20:47:51.945Z,20.44
2023-06-21T20:50:20.591Z,20.40
2023-06-21T20:52:47.118Z,20.30
2023-06-21T20:55:13.561Z,20.14
2023-06-21T20:57:39.924Z,20.04
2023-06-21T21:00:12.190Z,19.98
2023-06-21T21:02:38.974Z,19.91
2023-06-21T21:05:05.890Z,19.80
2023-06-21T21:07:32.526Z,19.72
2023-06-21T21:09:59.090Z,19.65
2023-06-21T21:12:27.297Z,19.68
2023-06-21T21:14:54.360Z,19.69
2023-06-21T21:17:20.896Z,19.66
2023-06-21T21:19:47.838Z,19.56
2023-06-21T21:22:15.012Z,19.45
2023-06-21T21:24:41.856Z,19.32
2023-06-21T21:27:08.702Z,19.26
2023-06-21T21:29:36.625Z,19.17
2023-06-21T21:32:05.348Z,19.08
2023-06-21T21:34:31.888Z,19.01
2023-06-21T21:36:58.588Z,19.09
2023-06-21T21:39:28.291Z,19.13
2023-06-21T21:41:54.697Z,19.15
2023-06-21T21:44:21.443Z,19.16
2023-06-21T21:46:48.784Z,19.11
2023-06-21T21:49:16.001Z,18.99
2023-06-21T21:51:43.012Z,18.86
2023-06-21T21:54:09.674Z,18.73
2023-06-21T21:56:36.041Z,18.67
2023-06-21T21:59:02.454Z,18.64
2023-06-21T22:01:28.923Z,18.59
2023-06-21T22:03:55.592Z,18.56
2023-06-21T22:06:22.270Z,18.60
2023-06-21T22:08:48.649Z,18.57
2023-06-21T22:11:16.708Z,18.47
2023-06-21T22:13:44.206Z,18.40
2023-06-21T22:16:13.485Z,18.34
2023-06-21T22:18:41.582Z,18.28
2023-06-21T22:21:10.283Z,18.24
2023-06-21T22:23:38.586Z,18.21
2023-06-21T22:26:07.416Z,18.16
2023-06-21T22:28:39.092Z,18.09
2023-06-21T22:31:06.075Z,18.09
2023-06-21T22:33:33.448Z,18.05
2023-06-21T22:36:00.032Z,18.00
2023-06-21T22:38:26.811Z,17.93
2023-06-21T22:40:55.036Z,17.89
2023-06-21T22:43:21.572Z,17.86
2023-06-21T22:45:47.970Z,17.82
2023-06-21T22:48:14.616Z,17.86
2023-06-21T22:50:43.717Z,17.88
2023-06-21T22:53:10.460Z,17.86
2023-06-21T22:55:36.953Z,17.85
2023-06-21T22:58:05.077Z,17.86
2023-06-21T23:00:32.209Z,17.88
2023-06-21T23:02:58.904Z,17.86
2023-06-21T23:05:25.623Z,17.83
2023-06-21T23:07:52.255Z,17.82
2023-06-21T23:10:18.614Z,17.81
2023-06-21T23:12:45.104Z,17.81
2023-06-21T23:15:17.679Z,17.83
2023-06-21T23:17:45.526Z,17.83
2023-06-21T23:20:13.930Z,17.84
2023-06-21T23:22:41.312Z,17.75
2023-06-21T23:25:13.316Z,17.58
2023-06-21T23:27:44.230Z,17.47
2023-06-21T23:30:20.558Z,17.45
2023-06-21T23:32:57.115Z,17.43
2023-06-21T23:35:23.544Z,17.41
2023-06-21T23:37:54.830Z,17.45
2023-06-21T23:40:21.254Z,17.41
2023-06-21T23:42:52.527Z,17.33
2023-06-21T23:45:19.267Z,17.30
2023-06-21T23:47:45.797Z,17.28
2023-06-21T23:50:12.566Z,17.26
2023-06-21T23:52:42.345Z,17.24
2023-06-21T23:55:09.689Z,17.17
2023-06-21T23:57:36.114Z,17.09
